Hlavní strana
METAR-TAF:

METAR-TAF

Letiště :

Polokwane, Jihoafrická republika

zeměpisná šířka: 23-50-43S, zeměpisná délka: 29-27-31E, výška: 1242 m

Aktuální stav počasí

Zpráva byla vytvořena před 54 minutami, v 18:00 UTC
Severní vítr 4 kt
Teplota 23°C
Vlhkost vzduchu 61%
Tlak 1019 hPa
Viditelnost 10 km a více
Žádná oblačnost pod 1500 m, nevyskytují se cumulonimby.

METAR: FAPP 141800Z 01004KT CAVOK 23/15 Q1019 NOSIG

Čas: 20:54 (18:54 UTC)

Předpověď počasí

Zpráva byla vytvořena před 11 hodinami a 54 minutami, v 07:00 UTC
Předpověď platná od 14 v 07 UTC do 14 v 18 UTC
Severní vítr 8 kt
Viditelnost 10 km a více
Polojasno ve výšce 2000 ft
Změna
od 14 v 07 UTC do 14 v 09 UTC
Oblačno až skoro zataženo ve výšce 1500 ft

TAF: FAPP 140700Z 1407/1418 01008KT 9999 SCT020 TX28/1413Z TN18/1407Z BECMG 1407/1409 BKN015

Stav a předpovědi počasí z více než 4 000 letišť (zprávy METAR a TAF).

Červené a žluté tečky na mapě představují dostupné meteorologické stanice.

Když kurzor umístíte na tečku, zobrazí se název stanice.

Pak kliknutím zobrazíte stav a předpověď počasí.

Chcete-li změnit mapu, kliknutím na zelené tlačítko se znaménkem +mapu přiblížíte, kliknutím na zelené tlačítko se znaménkem – mapu oddálíte a kliknutím na zelené šipky přejdete na sousední mapy.


METAR-TAF: